Time;durP1;ratioP1;P1;durP2;ratioP2;P2;SDS_P1;SDS_P2;PMS_P1;PMS_P2;Temp;Humidity;BMP_temperature;BMP_pressure;BME280_temperature;BME280_humidity;BME280_pressure;Samples;Min_cycle;Max_cycle;Signal;HPM_P1;HPM_P2
2022/03/23 00:02:08;;;;;;;28.37;17.00;;;11.40;47.30;;;;;;5066574;28;20288;-71
2022/03/23 00:04:35;;;;;;;25.73;16.40;;;11.30;47.40;;;;;;5073912;28;20205;-71
2022/03/23 00:07:04;;;;;;;24.03;15.63;;;11.40;47.50;;;;;;5077586;28;20262;-71
2022/03/23 00:09:31;;;;;;;23.07;15.30;;;11.40;47.30;;;;;;5076015;28;20252;-70
2022/03/23 00:11:58;;;;;;;29.07;16.00;;;11.40;47.30;;;;;;5071898;28;20213;-71
2022/03/23 00:14:25;;;;;;;23.23;15.93;;;11.30;47.10;;;;;;5076719;28;20212;-72
2022/03/23 00:16:52;;;;;;;26.03;15.17;;;11.30;47.10;;;;;;5072827;28;20221;-71
2022/03/23 00:19:19;;;;;;;30.10;16.27;;;11.30;47.10;;;;;;5075469;28;20275;-71
2022/03/23 00:21:46;;;;;;;25.73;15.97;;;11.30;47.10;;;;;;5076921;28;20293;-71
2022/03/23 00:24:14;;;;;;;23.53;15.47;;;11.30;47.30;;;;;;5077517;28;20206;-72
2022/03/23 00:26:41;;;;;;;25.33;16.23;;;11.30;47.20;;;;;;5077926;28;20254;-71
2022/03/23 00:29:08;;;;;;;23.03;16.27;;;11.30;47.20;;;;;;5075929;28;20671;-72
2022/03/23 00:31:35;;;;;;;25.13;15.60;;;11.30;47.20;;;;;;5078591;28;20637;-71
2022/03/23 00:34:02;;;;;;;24.57;15.90;;;11.30;47.40;;;;;;5078072;28;20581;-72
2022/03/23 00:36:29;;;;;;;21.03;14.53;;;11.30;47.30;;;;;;5077389;28;20220;-71
2022/03/23 00:38:56;;;;;;;24.23;15.07;;;11.30;47.30;;;;;;5071392;28;20197;-71
2022/03/23 00:41:24;;;;;;;26.37;15.00;;;11.20;47.10;;;;;;5078301;28;20212;-71
2022/03/23 00:43:51;;;;;;;23.13;15.83;;;11.20;47.00;;;;;;5068132;28;20608;-72
2022/03/23 00:46:19;;;;;;;24.07;14.50;;;11.20;46.90;;;;;;5074712;28;20295;-71
2022/03/23 00:48:47;;;;;;;24.07;14.63;;;11.20;47.00;;;;;;5078066;28;20213;-71
2022/03/23 00:51:14;;;;;;;27.13;15.67;;;11.20;46.90;;;;;;5075173;28;20233;-72
2022/03/23 00:53:41;;;;;;;21.40;14.10;;;11.20;46.90;;;;;;5058889;28;20206;-71
2022/03/23 00:56:08;;;;;;;26.90;15.93;;;11.20;46.90;;;;;;5074567;28;20205;-73
2022/03/23 00:58:36;;;;;;;25.93;15.97;;;11.20;46.80;;;;;;5077087;28;20320;-72
2022/03/23 01:01:03;;;;;;;23.87;15.20;;;11.20;46.80;;;;;;5072464;28;20233;-72
2022/03/23 01:03:30;;;;;;;22.30;15.13;;;11.20;46.80;;;;;;5078120;28;20273;-71
2022/03/23 01:05:57;;;;;;;22.97;16.10;;;11.10;46.70;;;;;;5076477;28;20610;-71
2022/03/23 01:08:24;;;;;;;24.50;15.87;;;11.10;47.50;;;;;;5064812;28;20202;-72
2022/03/23 01:10:50;;;;;;;24.30;16.47;;;11.20;47.10;;;;;;5064755;28;20574;-71
2022/03/23 01:13:18;;;;;;;27.87;17.13;;;11.10;47.10;;;;;;5077210;28;20645;-72
2022/03/23 01:15:46;;;;;;;25.97;17.47;;;11.10;47.30;;;;;;5076157;28;20273;-72
2022/03/23 01:18:13;;;;;;;24.27;15.63;;;11.00;47.30;;;;;;5077739;28;20217;-72
2022/03/23 01:20:40;;;;;;;28.07;17.07;;;11.00;47.30;;;;;;5078192;28;20263;-71
2022/03/23 01:23:07;;;;;;;28.73;18.47;;;11.00;47.30;;;;;;5077704;28;20296;-71
2022/03/23 01:25:34;;;;;;;30.20;18.47;;;10.90;47.30;;;;;;5077105;28;20213;-71
2022/03/23 01:28:01;;;;;;;28.90;18.17;;;10.90;47.30;;;;;;5077891;28;20207;-71
2022/03/23 01:30:28;;;;;;;27.93;18.03;;;10.80;47.50;;;;;;5064728;28;20206;-72
2022/03/23 01:32:56;;;;;;;32.00;19.10;;;10.80;47.70;;;;;;5070649;28;20209;-72
2022/03/23 01:35:23;;;;;;;31.70;19.73;;;10.70;47.70;;;;;;5067873;28;20240;-71
2022/03/23 01:37:50;;;;;;;27.90;19.40;;;10.70;47.90;;;;;;5076417;28;20232;-72
2022/03/23 01:40:17;;;;;;;28.77;18.70;;;10.70;47.90;;;;;;5056866;28;20607;-71
2022/03/23 01:42:44;;;;;;;30.20;19.17;;;10.70;48.10;;;;;;5067434;28;20240;-71
2022/03/23 01:45:12;;;;;;;29.77;19.27;;;10.60;48.10;;;;;;5062146;28;20289;-71
2022/03/23 01:47:39;;;;;;;28.53;19.97;;;10.60;48.20;;;;;;5066131;28;20237;-71
2022/03/23 01:50:09;;;;;;;32.80;20.37;;;10.50;48.30;;;;;;5077100;28;20244;-72
2022/03/23 01:52:38;;;;;;;29.13;20.57;;;10.50;48.50;;;;;;5077474;28;20202;-70
2022/03/23 01:55:07;;;;;;;32.67;20.17;;;10.40;48.50;;;;;;5066742;28;20213;-71
2022/03/23 01:57:35;;;;;;;33.57;20.83;;;10.40;48.70;;;;;;5065846;28;20908;-70
2022/03/23 02:00:03;;;;;;;36.10;20.67;;;10.30;48.80;;;;;;5070033;28;20215;-68
2022/03/23 02:02:30;;;;;;;33.47;21.50;;;10.30;48.90;;;;;;5066107;28;20232;-68
2022/03/23 02:04:57;;;;;;;33.53;22.47;;;10.20;48.90;;;;;;5058364;28;20212;-68
2022/03/23 02:07:25;;;;;;;32.50;22.43;;;10.10;49.20;;;;;;5073246;28;20296;-68
2022/03/23 02:09:52;;;;;;;37.27;22.57;;;10.10;49.40;;;;;;5076310;28;20209;-68
2022/03/23 02:12:20;;;;;;;37.17;22.37;;;10.00;49.50;;;;;;5069659;28;20205;-67
2022/03/23 02:14:48;;;;;;;37.93;23.00;;;10.00;49.70;;;;;;5074392;28;20208;-68
2022/03/23 02:17:15;;;;;;;38.93;24.53;;;9.90;50.80;;;;;;5073480;28;21113;-69
2022/03/23 02:19:43;;;;;;;39.50;23.70;;;9.80;50.90;;;;;;5064518;28;20256;-69
2022/03/23 02:22:11;;;;;;;41.77;25.17;;;9.80;51.20;;;;;;5072811;28;20221;-68
2022/03/23 02:24:38;;;;;;;41.30;25.30;;;9.70;51.30;;;;;;5073868;28;20205;-69
2022/03/23 02:27:06;;;;;;;40.07;24.57;;;9.70;51.50;;;;;;5072953;28;20205;-69
2022/03/23 02:29:34;;;;;;;36.47;24.33;;;9.70;51.50;;;;;;5064825;28;20244;-68
2022/03/23 02:32:02;;;;;;;40.47;26.13;;;9.60;51.50;;;;;;5062503;28;20208;-69
2022/03/23 02:34:29;;;;;;;42.30;26.60;;;9.60;51.80;;;;;;5064492;28;20244;-69
2022/03/23 02:36:57;;;;;;;40.77;25.27;;;9.50;51.90;;;;;;5066453;28;20292;-67
2022/03/23 02:39:25;;;;;;;44.67;25.60;;;9.50;52.20;;;;;;5058900;28;20649;-69
2022/03/23 02:41:53;;;;;;;43.87;26.30;;;9.50;52.30;;;;;;5073897;28;20682;-69
2022/03/23 02:44:21;;;;;;;39.97;25.97;;;9.40;52.30;;;;;;5065928;28;20213;-68
2022/03/23 02:46:48;;;;;;;43.87;26.27;;;9.40;52.50;;;;;;5060802;28;20289;-68
2022/03/23 02:49:16;;;;;;;38.80;25.00;;;9.30;52.60;;;;;;5073937;28;20236;-69
2022/03/23 02:51:44;;;;;;;39.53;25.57;;;9.30;52.60;;;;;;5072352;28;20215;-68
2022/03/23 03:02:39;;;;;;;32.87;21.83;;;9.10;52.90;;;;;;5070036;28;20220;-67
2022/03/23 03:05:08;;;;;;;35.03;22.63;;;9.10;52.90;;;;;;5069220;28;20240;-68
2022/03/23 03:10:17;;;;;;;34.57;22.07;;;9.10;53.00;;;;;;5073731;28;20220;-68
2022/03/23 03:12:45;;;;;;;34.13;21.20;;;9.10;53.10;;;;;;5073297;28;20209;-69
2022/03/23 03:15:12;;;;;;;34.77;22.37;;;9.10;53.10;;;;;;5062108;28;20661;-68
2022/03/23 03:17:39;;;;;;;33.20;20.17;;;9.10;53.10;;;;;;5058693;28;20788;-69
2022/03/23 03:20:07;;;;;;;34.97;22.63;;;9.00;53.10;;;;;;5065771;28;20411;-68
2022/03/23 03:22:35;;;;;;;33.20;20.50;;;9.00;53.10;;;;;;5075042;28;20237;-68
2022/03/23 03:25:03;;;;;;;34.17;20.80;;;9.00;53.10;;;;;;5073137;28;20236;-69
2022/03/23 03:27:35;;;;;;;29.20;21.17;;;9.00;53.10;;;;;;5074429;28;20346;-68
2022/03/23 03:30:04;;;;;;;33.87;21.37;;;9.00;53.10;;;;;;5065809;28;20292;-69
2022/03/23 03:32:31;;;;;;;33.83;21.03;;;8.90;53.10;;;;;;5074227;28;20208;-68
2022/03/23 03:34:58;;;;;;;32.77;20.63;;;8.90;53.10;;;;;;5070001;28;20205;-68
2022/03/23 03:37:25;;;;;;;30.17;20.73;;;8.80;53.20;;;;;;5072865;28;20205;-69
2022/03/23 03:39:52;;;;;;;33.27;20.73;;;8.80;53.30;;;;;;5074420;28;20299;-68
2022/03/23 03:42:19;;;;;;;32.70;20.83;;;8.80;53.40;;;;;;5073667;28;20255;-68
2022/03/23 03:44:51;;;;;;;32.60;20.70;;;8.70;53.40;;;;;;5067104;28;20368;-68
2022/03/23 03:47:19;;;;;;;33.33;21.77;;;8.70;53.50;;;;;;5073681;28;20217;-68
2022/03/23 03:49:46;;;;;;;37.30;22.13;;;8.70;53.60;;;;;;5073733;28;20215;-69
2022/03/23 03:52:13;;;;;;;36.07;22.20;;;8.70;53.70;;;;;;5074363;28;20197;-68
2022/03/23 03:54:40;;;;;;;35.07;21.90;;;8.70;53.80;;;;;;5072395;28;20213;-68
2022/03/23 03:57:07;;;;;;;32.83;21.43;;;8.60;53.80;;;;;;5064851;28;20208;-68
2022/03/23 03:59:34;;;;;;;38.23;21.63;;;8.70;53.90;;;;;;5076782;28;20251;-67
2022/03/23 04:02:01;;;;;;;33.63;21.33;;;8.60;53.90;;;;;;5075930;28;20288;-68
2022/03/23 04:04:30;;;;;;;32.30;20.20;;;8.70;53.90;;;;;;5075307;28;20213;-68
2022/03/23 04:06:57;;;;;;;31.37;20.67;;;8.70;53.90;;;;;;5077778;28;20629;-68
2022/03/23 04:09:24;;;;;;;32.00;20.33;;;8.70;53.80;;;;;;5068858;28;20198;-68
2022/03/23 04:11:51;;;;;;;33.43;19.10;;;8.70;53.80;;;;;;5071984;28;20300;-69
2022/03/23 04:14:19;;;;;;;27.50;18.83;;;8.70;53.70;;;;;;5076157;28;20229;-68
2022/03/23 04:16:45;;;;;;;31.87;18.73;;;8.70;53.70;;;;;;5076921;28;20217;-69
2022/03/23 04:19:12;;;;;;;32.10;19.37;;;8.70;53.60;;;;;;5077569;28;20236;-69
2022/03/23 04:21:40;;;;;;;30.87;19.10;;;8.70;53.60;;;;;;5075168;28;20237;-68
2022/03/23 04:24:07;;;;;;;27.43;19.17;;;8.70;53.60;;;;;;5076752;28;20632;-68
2022/03/23 04:26:35;;;;;;;30.07;19.30;;;8.70;53.60;;;;;;5076750;28;20212;-67
2022/03/23 04:29:01;;;;;;;33.17;19.87;;;8.70;53.50;;;;;;5077655;28;20215;-68
2022/03/23 04:31:28;;;;;;;28.43;18.67;;;8.80;53.60;;;;;;5069787;28;20201;-69
2022/03/23 04:33:55;;;;;;;34.37;18.80;;;8.80;53.60;;;;;;5076202;28;20197;-68
2022/03/23 04:36:22;;;;;;;32.33;19.77;;;8.80;53.60;;;;;;5076790;28;20271;-68
2022/03/23 04:38:50;;;;;;;34.13;18.93;;;8.80;53.50;;;;;;5077814;28;20225;-68
2022/03/23 04:41:17;;;;;;;26.40;18.63;;;8.80;53.50;;;;;;5075986;28;20209;-69
2022/03/23 04:43:44;;;;;;;33.80;20.13;;;8.80;53.50;;;;;;5071915;28;20800;-68
2022/03/23 04:46:11;;;;;;;28.23;18.80;;;8.80;53.50;;;;;;5064546;28;20293;-69
2022/03/23 04:48:38;;;;;;;30.47;19.80;;;8.80;53.50;;;;;;5068021;28;20662;-68
2022/03/23 04:51:05;;;;;;;29.27;18.33;;;8.80;53.50;;;;;;5076019;28;20569;-69
2022/03/23 04:53:32;;;;;;;32.90;18.57;;;8.80;53.50;;;;;;5076467;28;20216;-68
2022/03/23 04:56:01;;;;;;;31.37;18.83;;;8.90;53.50;;;;;;5074488;28;20501;-68
2022/03/23 04:58:29;;;;;;;32.43;20.10;;;8.90;53.50;;;;;;5072791;28;20685;-67
2022/03/23 05:00:56;;;;;;;26.23;18.67;;;9.00;53.50;;;;;;5075823;28;20288;-69
2022/03/23 05:03:24;;;;;;;27.77;19.33;;;9.00;53.30;;;;;;5076833;28;20255;-69
2022/03/23 05:05:52;;;;;;;28.70;18.33;;;9.10;53.40;;;;;;5061232;28;20302;-68
2022/03/23 05:08:18;;;;;;;30.97;18.90;;;9.10;53.30;;;;;;5073674;28;20229;-69
2022/03/23 05:10:45;;;;;;;29.73;18.47;;;9.10;53.20;;;;;;5075803;28;20244;-68
2022/03/23 05:13:14;;;;;;;30.93;18.97;;;9.20;53.20;;;;;;5076216;28;20237;-68
2022/03/23 05:15:40;;;;;;;27.67;18.57;;;9.20;53.20;;;;;;5068304;28;20205;-68
2022/03/23 05:18:07;;;;;;;30.57;17.80;;;9.30;53.00;;;;;;5071142;28;20229;-70
2022/03/23 05:20:34;;;;;;;30.93;18.60;;;9.30;53.00;;;;;;5075837;28;20265;-68
2022/03/23 05:23:02;;;;;;;28.43;17.77;;;9.40;53.10;;;;;;5076784;28;20201;-70
2022/03/23 05:25:30;;;;;;;30.70;18.73;;;9.50;53.10;;;;;;5074238;28;20704;-68
2022/03/23 05:27:57;;;;;;;28.77;18.03;;;9.50;53.10;;;;;;5076466;28;20335;-69
2022/03/23 05:30:25;;;;;;;33.30;18.67;;;9.60;53.10;;;;;;5073909;28;20201;-68
2022/03/23 05:32:52;;;;;;;27.87;18.47;;;9.60;52.90;;;;;;5075207;28;20564;-69
2022/03/23 05:35:19;;;;;;;28.87;17.10;;;9.60;52.80;;;;;;5074873;28;20247;-69
2022/03/23 05:37:46;;;;;;;29.37;18.23;;;9.70;52.90;;;;;;5065095;28;20251;-69
2022/03/23 05:40:13;;;;;;;27.87;17.83;;;9.80;53.00;;;;;;5062143;28;20221;-68
2022/03/23 05:42:40;;;;;;;27.33;17.73;;;9.80;53.00;;;;;;5068082;28;20325;-69
2022/03/23 05:45:08;;;;;;;31.30;19.27;;;9.90;53.10;;;;;;5065794;28;20234;-69
2022/03/23 05:47:37;;;;;;;28.73;17.50;;;9.90;53.10;;;;;;5076028;28;20205;-69
2022/03/23 05:50:05;;;;;;;27.50;17.17;;;9.90;53.00;;;;;;5071579;28;20247;-68
2022/03/23 05:52:32;;;;;;;26.13;16.47;;;10.00;52.00;;;;;;5075160;28;20201;-68
2022/03/23 05:54:59;;;;;;;24.53;16.23;;;10.00;51.90;;;;;;5074942;28;20211;-69
2022/03/23 05:57:26;;;;;;;23.47;16.00;;;10.00;51.80;;;;;;5076240;28;20284;-68
2022/03/23 05:59:52;;;;;;;25.97;16.43;;;10.10;51.80;;;;;;5075595;28;20228;-72
2022/03/23 06:02:19;;;;;;;27.97;16.77;;;10.10;51.60;;;;;;5074125;28;20240;-68
2022/03/23 06:04:47;;;;;;;25.13;16.53;;;10.20;51.60;;;;;;5075076;28;20209;-69
2022/03/23 06:07:15;;;;;;;23.40;16.37;;;10.20;51.60;;;;;;5074836;28;20251;-69
2022/03/23 06:09:41;;;;;;;30.90;17.57;;;10.20;51.40;;;;;;5067332;28;20296;-69
2022/03/23 06:12:12;;;;;;;32.33;17.63;;;10.40;51.40;;;;;;5075610;28;20229;-70
2022/03/23 06:14:42;;;;;;;25.87;16.83;;;10.50;51.20;;;;;;5075183;28;20211;-69
2022/03/23 06:17:09;;;;;;;28.50;18.57;;;10.70;51.10;;;;;;5075478;28;20216;-69
2022/03/23 06:19:36;;;;;;;32.27;18.03;;;10.90;50.70;;;;;;5073990;28;20631;-69
2022/03/23 06:22:05;;;;;;;31.03;19.70;;;11.10;50.30;;;;;;5075505;28;20257;-69
2022/03/23 06:24:31;;;;;;;27.77;17.40;;;11.20;49.70;;;;;;5075530;28;20209;-69
2022/03/23 06:26:59;;;;;;;29.73;20.00;;;11.20;49.60;;;;;;5076006;28;20293;-68
2022/03/23 06:29:26;;;;;;;31.03;19.93;;;11.20;49.60;;;;;;5075852;28;20280;-69
2022/03/23 06:31:53;;;;;;;33.73;19.10;;;11.20;49.50;;;;;;5073178;28;20307;-69
2022/03/23 06:34:20;;;;;;;32.10;20.03;;;11.30;49.60;;;;;;5070350;28;20206;-70
2022/03/23 06:36:47;;;;;;;35.20;20.87;;;11.30;49.50;;;;;;5078822;28;20665;-72
2022/03/23 06:39:15;;;;;;;37.87;20.87;;;11.40;49.30;;;;;;5074216;28;20229;-69
2022/03/23 06:41:42;;;;;;;31.53;21.53;;;11.40;49.20;;;;;;5075423;28;20228;-70
2022/03/23 06:44:10;;;;;;;35.60;21.13;;;11.50;49.10;;;;;;5061868;28;20289;-69
2022/03/23 06:46:37;;;;;;;34.47;22.10;;;11.50;49.20;;;;;;5063583;28;20232;-68
2022/03/23 06:49:05;;;;;;;37.60;21.37;;;11.60;49.10;;;;;;5074373;28;20227;-69
2022/03/23 06:51:33;;;;;;;37.37;21.27;;;11.70;48.90;;;;;;5074533;28;20217;-69
2022/03/23 06:54:00;;;;;;;33.60;21.63;;;11.70;48.70;;;;;;5069789;28;20197;-69
2022/03/23 06:56:28;;;;;;;39.30;22.57;;;11.80;48.70;;;;;;5072040;28;20276;-69
2022/03/23 06:58:56;;;;;;;33.93;21.77;;;11.80;48.60;;;;;;5062713;28;20226;-69
2022/03/23 07:01:23;;;;;;;35.67;21.27;;;11.90;48.60;;;;;;5072963;28;20235;-71
2022/03/23 07:03:50;;;;;;;35.47;21.87;;;12.00;48.40;;;;;;5064175;28;20296;-68
2022/03/23 07:06:16;;;;;;;36.37;22.50;;;12.00;48.20;;;;;;5073207;28;20246;-69
2022/03/23 07:11:31;;;;;;;35.03;20.77;;;12.00;48.20;;;;;;5071255;28;20257;-70
2022/03/23 07:13:58;;;;;;;35.53;22.13;;;12.00;48.00;;;;;;5069625;28;20285;-69
2022/03/23 07:16:25;;;;;;;36.20;21.97;;;12.00;47.80;;;;;;5068050;28;20213;-70
2022/03/23 07:18:52;;;;;;;31.67;20.90;;;12.10;47.90;;;;;;5074668;28;20228;-68
2022/03/23 07:21:19;;;;;;;39.63;20.80;;;12.20;47.90;;;;;;5068013;28;20261;-69
2022/03/23 07:23:46;;;;;;;40.50;20.70;;;12.40;47.60;;;;;;5072985;28;20288;-69
2022/03/23 07:26:15;;;;;;;41.53;21.23;;;12.50;47.50;;;;;;5062515;28;20312;-69
2022/03/23 07:28:44;;;;;;;33.53;21.30;;;12.60;47.00;;;;;;5063816;28;20242;-70
2022/03/23 07:31:10;;;;;;;37.73;20.73;;;12.70;46.90;;;;;;5073934;28;20564;-66
2022/03/23 07:33:38;;;;;;;36.13;20.47;;;12.90;46.70;;;;;;5070837;28;20201;-69
2022/03/23 07:36:05;;;;;;;37.50;22.17;;;13.00;46.60;;;;;;5070787;28;20938;-68
2022/03/23 07:38:32;;;;;;;36.60;21.67;;;13.10;46.20;;;;;;5065483;28;20208;-69
2022/03/23 07:40:59;;;;;;;34.67;22.10;;;13.20;46.00;;;;;;5067924;28;20249;-68
2022/03/23 07:43:26;;;;;;;39.77;22.60;;;13.20;46.10;;;;;;5073461;28;20669;-68
2022/03/23 07:45:54;;;;;;;46.33;24.60;;;13.30;45.80;;;;;;5075092;28;20275;-67
2022/03/23 07:48:23;;;;;;;35.60;22.33;;;13.50;45.90;;;;;;5074399;28;20638;-69
2022/03/23 07:50:50;;;;;;;33.30;22.00;;;13.60;46.60;;;;;;5066380;28;20197;-69
2022/03/23 07:53:17;;;;;;;36.57;22.63;;;13.80;46.00;;;;;;5071080;28;20244;-67
2022/03/23 07:55:44;;;;;;;39.10;21.73;;;14.10;45.60;;;;;;5065870;28;20205;-69
2022/03/23 07:58:11;;;;;;;32.37;22.33;;;14.30;45.40;;;;;;5065186;28;20225;-71
2022/03/23 08:00:41;;;;;;;40.47;22.33;;;14.60;45.20;;;;;;5076657;28;20682;-73
2022/03/23 08:03:10;;;;;;;41.93;21.80;;;14.70;44.70;;;;;;5077597;28;20224;-68
2022/03/23 08:05:38;;;;;;;35.97;21.00;;;15.10;44.60;;;;;;5076433;28;20201;-67
2022/03/23 08:08:06;;;;;;;32.37;20.87;;;15.10;44.10;;;;;;5076168;28;20215;-69
2022/03/23 08:10:32;;;;;;;33.20;19.93;;;15.40;43.90;;;;;;5075961;28;20209;-68
2022/03/23 08:12:59;;;;;;;32.33;20.23;;;15.60;43.20;;;;;;5075016;28;20205;-68
2022/03/23 08:15:29;;;;;;;31.97;20.30;;;15.80;42.70;;;;;;5072173;28;20236;-66
2022/03/23 08:17:56;;;;;;;32.87;19.90;;;16.00;42.40;;;;;;5075154;28;20221;-71
2022/03/23 08:20:36;;;;;;;31.27;19.30;;;16.10;41.90;;;;;;5076012;28;20570;-69
2022/03/23 08:23:05;;;;;;;30.70;19.03;;;16.30;41.50;;;;;;5069468;28;20336;-69
2022/03/23 08:25:33;;;;;;;35.63;19.57;;;16.50;41.00;;;;;;5070223;28;20663;-68
2022/03/23 08:28:01;;;;;;;36.63;19.60;;;16.70;40.50;;;;;;5074337;28;20304;-68
2022/03/23 08:30:28;;;;;;;29.40;19.48;;;16.70;40.70;;;;;;5074536;28;20573;-68
2022/03/23 08:32:55;;;;;;;29.67;19.77;;;16.70;39.90;;;;;;5073404;28;20251;-69
2022/03/23 08:35:25;;;;;;;31.77;20.00;;;16.80;39.70;;;;;;5077032;28;20216;-69
2022/03/23 08:37:52;;;;;;;32.97;20.57;;;16.80;39.40;;;;;;5072111;28;20296;-69
2022/03/23 08:40:19;;;;;;;34.40;22.15;;;16.90;39.10;;;;;;5069767;28;20222;-68
2022/03/23 08:42:46;;;;;;;32.88;21.10;;;17.00;39.00;;;;;;5072423;28;20317;-69
2022/03/23 08:45:17;;;;;;;33.90;20.80;;;17.10;39.00;;;;;;5062595;28;20614;-67
2022/03/23 08:47:45;;;;;;;34.63;22.13;;;17.30;39.20;;;;;;5075311;28;20334;-69
2022/03/23 08:50:13;;;;;;;36.13;22.08;;;17.50;39.00;;;;;;5068150;28;20204;-71
2022/03/23 08:52:42;;;;;;;36.47;22.15;;;17.70;38.80;;;;;;5074823;28;20225;-68
2022/03/23 08:55:14;;;;;;;34.72;22.17;;;17.90;38.60;;;;;;5070555;28;20655;-69
2022/03/23 08:57:41;;;;;;;30.23;20.92;;;18.10;38.10;;;;;;5060815;28;20551;-68
2022/03/23 09:00:09;;;;;;;32.20;21.88;;;18.20;37.70;;;;;;5065347;28;20235;-68
2022/03/23 09:02:36;;;;;;;32.63;21.63;;;18.40;37.70;;;;;;5066373;28;20304;-68
2022/03/23 09:05:03;;;;;;;30.75;21.60;;;18.50;37.50;;;;;;5074898;28;20288;-69
2022/03/23 09:07:33;;;;;;;31.23;21.85;;;18.70;37.50;;;;;;5067878;28;20212;-70
2022/03/23 09:10:01;;;;;;;29.70;21.23;;;18.90;37.10;;;;;;5067791;28;20214;-69
2022/03/23 09:12:28;;;;;;;33.58;21.63;;;19.00;36.60;;;;;;5071189;28;20206;-69
2022/03/23 09:14:55;;;;;;;31.52;21.33;;;19.00;36.40;;;;;;5073201;28;20220;-70
2022/03/23 09:17:22;;;;;;;31.00;21.88;;;19.10;36.60;;;;;;5066937;28;20202;-69
2022/03/23 09:19:49;;;;;;;31.40;21.98;;;19.40;37.30;;;;;;5066850;28;20652;-69
2022/03/23 09:22:16;;;;;;;32.17;20.83;;;20.00;36.50;;;;;;5063868;28;20243;-69
2022/03/23 09:24:43;;;;;;;32.20;21.58;;;22.60;36.10;;;;;;5060266;28;20206;-69
2022/03/23 09:27:11;;;;;;;28.08;21.90;;;26.60;31.20;;;;;;5069136;28;20684;-70
2022/03/23 09:29:39;;;;;;;28.70;20.75;;;30.40;28.00;;;;;;5066677;28;20240;-70
2022/03/23 09:32:10;;;;;;;26.80;20.77;;;33.60;25.40;;;;;;5070986;28;20208;-69
2022/03/23 09:34:37;;;;;;;25.88;19.45;;;36.30;23.30;;;;;;5069591;28;20217;-69
2022/03/23 09:39:49;;;;;;;24.15;18.63;;;39.70;20.60;;;;;;5056701;28;20767;-69
2022/03/23 09:42:18;;;;;;;21.85;19.05;;;40.70;20.40;;;;;;5070234;28;20237;-70
2022/03/23 09:44:47;;;;;;;25.38;19.83;;;41.40;19.60;;;;;;5060605;28;20732;-70
2022/03/23 09:47:14;;;;;;;26.10;20.38;;;42.00;19.20;;;;;;5063841;28;20201;-70
2022/03/23 09:49:40;;;;;;;22.27;19.83;;;42.60;19.00;;;;;;5075602;28;20209;-70
2022/03/23 09:52:07;;;;;;;23.35;20.15;;;42.90;18.90;;;;;;5075817;28;20632;-70
2022/03/23 09:54:34;;;;;;;24.02;19.63;;;43.60;18.80;;;;;;5073731;28;20204;-71
2022/03/23 09:57:02;;;;;;;24.05;19.55;;;44.60;18.40;;;;;;5075092;28;20224;-70
2022/03/23 09:59:30;;;;;;;21.02;18.33;;;45.30;17.80;;;;;;5070355;28;20209;-70
2022/03/23 10:02:30;;;;;;;23.25;17.90;;;45.70;17.50;;;;;;5061196;28;20292;-71
2022/03/23 10:05:32;;;;;;;19.73;16.65;;;45.90;17.40;;;;;;5071711;28;20239;-71
2022/03/23 10:08:20;;;;;;;20.77;17.75;;;47.10;17.00;;;;;;5069985;28;20204;-70
2022/03/23 10:11:29;;;;;;;21.45;18.67;;;48.40;16.70;;;;;;5072558;28;20624;-72
2022/03/23 10:14:41;;;;;;;21.33;19.08;;;48.80;16.40;;;;;;5073527;28;20235;-70
2022/03/23 10:17:49;;;;;;;21.20;17.52;;;48.70;16.50;;;;;;5070421;28;20209;-72
2022/03/23 10:20:16;;;;;;;19.92;16.08;;;48.60;16.20;;;;;;5070786;28;20290;-70
2022/03/23 10:22:47;;;;;;;19.30;17.35;;;48.30;16.20;;;;;;5070489;28;20296;-69
2022/03/23 10:25:15;;;;;;;19.42;17.42;;;48.30;16.10;;;;;;5065843;28;20197;-70
2022/03/23 10:27:42;;;;;;;20.23;17.80;;;48.70;16.20;;;;;;5070749;28;20232;-69
2022/03/23 10:30:10;;;;;;;18.60;16.02;;;48.70;16.10;;;;;;5064783;28;20201;-69
2022/03/23 10:32:41;;;;;;;18.60;16.58;;;48.60;15.90;;;;;;5072594;28;20255;-70
2022/03/23 10:35:12;;;;;;;16.15;14.55;;;48.60;15.90;;;;;;5061917;28;20205;-71
2022/03/23 10:37:39;;;;;;;16.55;14.80;;;48.40;16.10;;;;;;5067633;28;20292;-73
2022/03/23 10:40:08;;;;;;;16.58;14.93;;;47.70;15.70;;;;;;5073058;28;20222;-71
2022/03/23 10:42:37;;;;;;;16.98;15.18;;;47.70;15.80;;;;;;5065362;28;20237;-70
2022/03/23 10:45:09;;;;;;;14.48;13.07;;;48.10;15.60;;;;;;5065869;28;20204;-72
2022/03/23 10:47:40;;;;;;;12.45;11.15;;;48.50;15.30;;;;;;5068625;28;20208;-72
2022/03/23 10:50:10;;;;;;;11.95;10.30;;;48.00;15.20;;;;;;5069524;28;20236;-72
2022/03/23 10:52:47;;;;;;;12.68;11.38;;;48.00;15.40;;;;;;5063522;28;20232;-69
2022/03/23 10:55:15;;;;;;;12.70;11.50;;;47.80;15.20;;;;;;5061941;28;20201;-73
2022/03/23 10:58:25;;;;;;;14.52;12.60;;;47.20;15.60;;;;;;5071779;28;20597;-71
2022/03/23 11:00:55;;;;;;;12.80;11.50;;;46.90;15.80;;;;;;5063524;28;20216;-70
2022/03/23 11:03:38;;;;;;;13.25;11.27;;;46.60;15.60;;;;;;5067616;28;20665;-70
2022/03/23 11:06:06;;;;;;;13.65;12.35;;;45.50;15.70;;;;;;5068143;28;20678;-71
2022/03/23 11:08:33;;;;;;;14.70;13.07;;;44.40;16.10;;;;;;5073406;28;20213;-73
2022/03/23 11:16:35;;;;;;;15.82;10.25;;;42.60;16.50;;;;;;5070232;28;20278;-70
2022/03/23 11:19:08;;;;;;;10.10;8.93;;;42.10;16.60;;;;;;5061842;28;20209;-69
2022/03/23 11:21:56;;;;;;;10.70;9.07;;;41.60;16.60;;;;;;5065859;28;20237;-70
2022/03/23 11:24:22;;;;;;;10.63;9.13;;;41.10;16.40;;;;;;5060178;28;20292;-68
2022/03/23 11:26:50;;;;;;;10.90;9.85;;;40.30;16.60;;;;;;5059155;28;20720;-71
2022/03/23 11:29:18;;;;;;;12.85;10.68;;;39.90;16.90;;;;;;5056619;28;20209;-70
2022/03/23 11:31:46;;;;;;;13.75;10.05;;;39.50;16.90;;;;;;5057512;28;20250;-71
2022/03/23 11:34:19;;;;;;;15.52;11.25;;;38.60;16.90;;;;;;5064015;28;20285;-70
2022/03/23 11:36:49;;;;;;;12.57;10.48;;;37.70;17.30;;;;;;5067046;28;20197;-70
2022/03/23 11:39:16;;;;;;;10.25;9.07;;;36.80;17.60;;;;;;5062780;28;20639;-71
2022/03/23 11:41:44;;;;;;;12.68;10.20;;;36.00;17.60;;;;;;5057257;28;20229;-71
2022/03/23 11:44:15;;;;;;;12.93;11.65;;;35.20;18.00;;;;;;5069791;28;20251;-70
2022/03/23 11:46:43;;;;;;;13.43;11.50;;;34.20;18.10;;;;;;5063202;28;20217;-72
2022/03/23 11:49:22;;;;;;;14.52;12.23;;;33.20;18.60;;;;;;5065575;28;20232;-73
2022/03/23 11:52:06;;;;;;;13.55;12.23;;;32.30;19.10;;;;;;5059196;28;20198;-73
2022/03/23 11:58:03;;;;;;;17.33;13.35;;;31.00;19.90;;;;;;5067710;28;20200;-73
2022/03/23 12:00:39;;;;;;;17.48;14.23;;;30.70;20.40;;;;;;5060605;28;20241;-74
2022/03/23 12:03:06;;;;;;;16.00;12.20;;;30.30;20.30;;;;;;5069729;28;20193;-74
2022/03/23 12:05:36;;;;;;;17.85;13.90;;;30.10;20.20;;;;;;5073779;28;20678;-74
2022/03/23 12:08:03;;;;;;;19.02;14.57;;;29.80;20.70;;;;;;5064057;28;20205;-74
2022/03/23 12:10:32;;;;;;;16.08;13.25;;;29.70;20.80;;;;;;5058621;28;20209;-73
2022/03/23 12:13:12;;;;;;;19.55;15.13;;;29.40;20.90;;;;;;5067775;28;20206;-74
2022/03/23 12:15:57;;;;;;;16.42;14.73;;;29.10;21.00;;;;;;5057890;28;20214;-74
2022/03/23 12:18:40;;;;;;;18.58;14.63;;;28.80;21.10;;;;;;5064350;28;20205;-72
2022/03/23 12:21:11;;;;;;;17.92;15.00;;;28.60;21.30;;;;;;5073300;28;20230;-72
2022/03/23 12:23:53;;;;;;;20.90;15.55;;;28.60;21.50;;;;;;5077290;28;20644;-71
2022/03/23 12:26:27;;;;;;;18.52;15.85;;;28.60;21.70;;;;;;5068683;28;20237;-72
2022/03/23 12:28:56;;;;;;;23.45;15.57;;;28.50;21.70;;;;;;5077466;28;20262;-70
2022/03/23 12:31:23;;;;;;;19.70;15.20;;;28.40;22.00;;;;;;5062639;28;20626;-70
2022/03/23 12:34:09;;;;;;;19.23;16.10;;;28.40;22.10;;;;;;5072912;28;20205;-69
2022/03/23 12:36:59;;;;;;;22.80;15.93;;;28.20;21.80;;;;;;5069075;28;20608;-69
2022/03/23 12:39:31;;;;;;;19.58;16.27;;;28.00;21.80;;;;;;5067814;28;20676;-70
2022/03/23 12:41:59;;;;;;;18.50;16.13;;;27.70;21.70;;;;;;5065432;28;20328;-68
2022/03/23 12:44:31;;;;;;;23.60;16.33;;;27.40;21.80;;;;;;5077472;28;20197;-71
2022/03/23 12:47:04;;;;;;;21.33;16.73;;;27.30;22.10;;;;;;5076942;28;20228;-68
2022/03/23 12:58:08;;;;;;;24.02;17.75;;;26.70;22.30;;;;;;5075332;28;20200;-70
2022/03/23 13:00:38;;;;;;;20.23;16.33;;;26.70;22.50;;;;;;5069306;28;20320;-71
2022/03/23 13:03:47;;;;;;;23.05;17.90;;;26.60;22.70;;;;;;5067987;28;20206;-69
2022/03/23 13:06:16;;;;;;;23.67;18.17;;;26.70;22.70;;;;;;5076785;28;20670;-69
2022/03/23 13:08:51;;;;;;;21.33;17.05;;;26.60;22.70;;;;;;5064913;28;21315;-69
2022/03/23 13:11:23;;;;;;;23.05;17.63;;;26.50;22.80;;;;;;5065880;28;20713;-68
2022/03/23 13:13:52;;;;;;;22.83;18.25;;;26.40;22.90;;;;;;5067190;28;20216;-69
2022/03/23 13:16:22;;;;;;;22.30;17.83;;;26.30;22.90;;;;;;5072210;28;20337;-70